クェゼリン環礁 の空港の天気 - METARとTAF

バックホルツ陸軍飛行場 ( PKWA / KWA ) - マーシャル諸島 クェゼリン環礁
飛行場実況気象(Metar)
観測時間08/17 23:40 MHT (08/17 11:40 UTC)
風向・風速南東 4m/s
視程10km以上
天気現象
なし
気温27.7℃
湿度88%
気圧1011hPa
METARPKWA 171140Z AUTO 14008KT 10SM CLR 28/26 A2984 RMK AO2 T02770255
過去の天気等 Google飛行場航空写真 Wunderground天気予報

過去48時間のMETAR

飛行場予報(TAF)
発表時間: 8/17 17:41 MHT (8/17 05:41 UTC)
予報対象時間: 17日18時 MHT ~ 18日18時 MHT
風向・風速東 5m/s
視程10km以上
天気現象周辺でしゅう雨
全天の4割程度の雲 雲底高度 610m
全天の4割程度の雲 雲底高度 1520m
PKWA 170541Z 1706/1806 09009KT P6SM VCSH SCT020 SCT050